ADDS METAR Data INFO
IDs: Format: Raw Decoded Include TAF

Data at: 2035 UTC 16 Dec 2017

KDWH 161953Z 10007KT 10SM OVC055 14/02 A3008 RMK AO2 RAB1854E06 SLP186 P0000 T01390017
KDWH 161853Z 09006KT 10SM FEW070 SCT120 13/03 A3012 RMK AO2 RAE04 SLP199 P0000 T01280033
KDWH 161753Z 11008KT 10SM -RA FEW050 SCT070 BKN090 12/03 A3016 RMK AO2 RAB43 SLP214 P0000 60000 T01220033 10122 20083 58018
KDWH 161653Z 10005KT 10SM BKN080 OVC100 11/04 A3020 RMK AO2 SLP226 T01110039
KDWH 161553Z 09005KT 10SM FEW070 OVC100 10/04 A3022 RMK AO2 SLP232 T01000044
KDWH 161453Z 10003KT 10SM BKN075 OVC100 09/05 A3022 RMK AO2 SLP232 T00890050 50001
KDWH 161353Z 00000KT 9SM OVC075 09/06 A3022 RMK AO2 SLP233 T00890056
KDWH 161253Z 14003KT 10SM OVC085 08/06 A3023 RMK AO2 SLP237 T00830061
KDWH 161153Z AUTO 00000KT 10SM OVC090 08/06 A3022 RMK AO2 SLP231 T00780061 10078 20033 56010
KDWH 161053Z AUTO 00000KT 10SM OVC090 07/07 A3022 RMK AO2 SLP233 T00720067
KDWH 160953Z AUTO 00000KT 10SM OVC100 07/06 A3023 RMK AO2 SLP236 T00670056
KDWH 160853Z AUTO 29003KT 10SM BKN100 04/04 A3025 RMK AO2 SLP241 T00440044 55006
KDWH 160753Z AUTO 00000KT 9SM CLR 04/03 A3024 RMK AO2 SLP241 T00440033
KDWH 160653Z AUTO 00000KT 10SM CLR 05/04 A3025 RMK AO2 SLP244 T00500039
KDWH 160553Z AUTO 00000KT 10SM CLR 06/04 A3026 RMK AO2 SLP247 T00610039 10094 20061 401390061 58007
KDWH 160453Z AUTO 20003KT 10SM CLR 08/05 A3029 RMK AO2 SLP255 T00780050
KDWH 160353Z AUTO 00000KT 10SM CLR 08/04 A3029 RMK AO2 SLP256 T00780044
KDWH 160253Z 00000KT 10SM CLR 08/04 A3028 RMK AO2 SLP254 T00830044 51011
KDWH 160153Z 00000KT 10SM CLR 08/05 A3027 RMK AO2 SLP248 T00780050
KDWH 160053Z 00000KT 10SM CLR 09/04 A3027 RMK AO2 SLP250 T00890039
KDWH 152353Z 00000KT 10SM CLR 09/04 A3025 RMK AO2 SLP244 T00940039 10139 20094 55001
KDWH 152253Z 00000KT 10SM CLR 12/01 A3024 RMK AO2 SLP240 T01220011
KDWH 152153Z VRB04KT 10SM CLR 13/00 A3025 RMK AO2 SLP240 T01330000
KDWH 152053Z VRB04KT 10SM CLR 13/01 A3025 RMK AO2 SLP243 T01330011 56020
KDWH 151953Z 02004KT 10SM CLR 13/01 A3026 RMK AO2 SLP245 T01330011
KDWH 151853Z 03006KT 10SM CLR 12/01 A3028 RMK AO2 SLP251 T01220011
KDWH 151753Z VRB04KT 10SM CLR 11/02 A3031 RMK AO2 SLP263 T01110017 10111 20083 50009
KDWH 151653Z 03006KT 10SM CLR 10/01 A3033 RMK AO2 SLP268 T01000011
KDWH 151553Z 02006KT 10SM CLR 09/01 A3032 RMK AO2 SLP265 T00890006
KDWH 151453Z 36006KT 10SM CLR 09/01 A3028 RMK AO2 SLP255 T00890006 51031
KDWH 151353Z 01009KT 10SM CLR 08/00 A3027 RMK AO2 SLP249 T00830000
KDWH 151253Z 36008KT 10SM CLR 08/00 A3022 RMK AO2 SLP233 T00830000
KDWH 151153Z AUTO 36009KT 10SM OVC110 09/00 A3019 RMK AO2 SLP222 60000 T00890000 10117 20089 51005
KDWH 151053Z AUTO 35008KT 10SM OVC095 09/01 A3018 RMK AO2 RAE22 SLP219 P0000 T00940006
KDWH 150953Z AUTO 36009KT 10SM -RA FEW070 OVC095 10/00 A3019 RMK AO2 RAB52 SLP221 P0000 T01000000
KDWH 150853Z AUTO 01008KT 10SM FEW090 BKN110 11/01 A3018 RMK AO2 SLP217 T01060006 51015